sensor_id;sensor_type;location;lat;lon;timestamp;temperature;humidity
12370;DHT22;6249;52.128;9.986;2022-07-23T00:00:07;16.20;99.90
12370;DHT22;6249;52.128;9.986;2022-07-23T00:03:30;16.20;99.90
12370;DHT22;6249;52.128;9.986;2022-07-23T00:06:51;16.20;99.90
12370;DHT22;6249;52.128;9.986;2022-07-23T00:10:11;16.20;99.90
12370;DHT22;6249;52.128;9.986;2022-07-23T00:13:34;16.30;99.90
12370;DHT22;6249;52.128;9.986;2022-07-23T00:16:55;16.20;99.90
12370;DHT22;6249;52.128;9.986;2022-07-23T00:20:18;16.10;99.90
12370;DHT22;6249;52.128;9.986;2022-07-23T00:23:39;16.20;99.90
12370;DHT22;6249;52.128;9.986;2022-07-23T00:27:00;16.20;99.90
12370;DHT22;6249;52.128;9.986;2022-07-23T00:30:20;16.10;99.90
12370;DHT22;6249;52.128;9.986;2022-07-23T00:33:41;16.10;99.90
12370;DHT22;6249;52.128;9.986;2022-07-23T00:37:02;16.00;99.90
12370;DHT22;6249;52.128;9.986;2022-07-23T00:40:26;15.90;99.90
12370;DHT22;6249;52.128;9.986;2022-07-23T00:43:47;15.90;99.90
12370;DHT22;6249;52.128;9.986;2022-07-23T00:47:12;15.80;99.90
12370;DHT22;6249;52.128;9.986;2022-07-23T00:50:33;15.80;99.90
12370;DHT22;6249;52.128;9.986;2022-07-23T00:53:59;15.80;99.90
12370;DHT22;6249;52.128;9.986;2022-07-23T00:57:20;15.80;99.90
12370;DHT22;6249;52.128;9.986;2022-07-23T01:00:41;15.80;99.90
12370;DHT22;6249;52.128;9.986;2022-07-23T01:04:01;15.90;99.90
12370;DHT22;6249;52.128;9.986;2022-07-23T01:07:24;15.90;99.90
12370;DHT22;6249;52.128;9.986;2022-07-23T01:10:48;15.90;99.90
12370;DHT22;6249;52.128;9.986;2022-07-23T01:14:18;15.90;99.90
12370;DHT22;6249;52.128;9.986;2022-07-23T01:17:39;15.80;99.90
12370;DHT22;6249;52.128;9.986;2022-07-23T01:21:00;15.80;99.90
12370;DHT22;6249;52.128;9.986;2022-07-23T01:24:20;15.80;99.90
12370;DHT22;6249;52.128;9.986;2022-07-23T01:27:41;15.70;99.90
12370;DHT22;6249;52.128;9.986;2022-07-23T01:31:02;15.70;99.90
12370;DHT22;6249;52.128;9.986;2022-07-23T01:34:25;15.70;99.90
12370;DHT22;6249;52.128;9.986;2022-07-23T01:37:50;15.60;99.90
12370;DHT22;6249;52.128;9.986;2022-07-23T01:41:16;15.60;99.90
12370;DHT22;6249;52.128;9.986;2022-07-23T01:44:37;15.60;99.90
12370;DHT22;6249;52.128;9.986;2022-07-23T01:47:57;15.60;99.90
12370;DHT22;6249;52.128;9.986;2022-07-23T01:51:20;15.60;99.90
12370;DHT22;6249;52.128;9.986;2022-07-23T01:54:41;15.50;99.90
12370;DHT22;6249;52.128;9.986;2022-07-23T01:58:01;15.50;99.90
12370;DHT22;6249;52.128;9.986;2022-07-23T02:01:26;15.50;99.90
12370;DHT22;6249;52.128;9.986;2022-07-23T02:04:49;15.50;99.90
12370;DHT22;6249;52.128;9.986;2022-07-23T02:08:10;15.40;99.90
12370;DHT22;6249;52.128;9.986;2022-07-23T02:11:33;15.30;99.90
12370;DHT22;6249;52.128;9.986;2022-07-23T02:14:56;15.20;99.90
12370;DHT22;6249;52.128;9.986;2022-07-23T02:18:19;15.20;99.90
12370;DHT22;6249;52.128;9.986;2022-07-23T02:21:39;15.20;99.90
12370;DHT22;6249;52.128;9.986;2022-07-23T02:25:00;15.20;99.90
12370;DHT22;6249;52.128;9.986;2022-07-23T02:28:21;15.20;99.90
12370;DHT22;6249;52.128;9.986;2022-07-23T02:31:41;15.30;99.90
12370;DHT22;6249;52.128;9.986;2022-07-23T02:35:03;15.40;99.90
12370;DHT22;6249;52.128;9.986;2022-07-23T02:38:27;15.30;99.90
12370;DHT22;6249;52.128;9.986;2022-07-23T02:41:47;15.40;99.90
12370;DHT22;6249;52.128;9.986;2022-07-23T02:45:10;15.40;99.90
12370;DHT22;6249;52.128;9.986;2022-07-23T02:48:31;15.40;99.90
12370;DHT22;6249;52.128;9.986;2022-07-23T02:51:54;15.50;99.90
12370;DHT22;6249;52.128;9.986;2022-07-23T02:55:15;15.50;99.90
12370;DHT22;6249;52.128;9.986;2022-07-23T02:58:35;15.50;99.90
12370;DHT22;6249;52.128;9.986;2022-07-23T03:01:58;15.50;99.90
12370;DHT22;6249;52.128;9.986;2022-07-23T03:05:23;15.60;99.90
12370;DHT22;6249;52.128;9.986;2022-07-23T03:08:44;15.60;99.90
12370;DHT22;6249;52.128;9.986;2022-07-23T03:12:07;15.60;99.90
12370;DHT22;6249;52.128;9.986;2022-07-23T03:15:33;15.60;99.90
12370;DHT22;6249;52.128;9.986;2022-07-23T03:18:56;15.70;99.90
12370;DHT22;6249;52.128;9.986;2022-07-23T03:22:16;15.80;99.90
12370;DHT22;6249;52.128;9.986;2022-07-23T03:25:42;15.80;99.90
12370;DHT22;6249;52.128;9.986;2022-07-23T03:29:03;15.90;99.90
12370;DHT22;6249;52.128;9.986;2022-07-23T03:32:24;16.00;99.90
12370;DHT22;6249;52.128;9.986;2022-07-23T03:35:49;16.00;99.90
12370;DHT22;6249;52.128;9.986;2022-07-23T03:39:10;16.00;99.90
12370;DHT22;6249;52.128;9.986;2022-07-23T03:42:33;16.00;99.90
12370;DHT22;6249;52.128;9.986;2022-07-23T03:45:54;16.00;99.90
12370;DHT22;6249;52.128;9.986;2022-07-23T03:49:17;16.10;99.90
12370;DHT22;6249;52.128;9.986;2022-07-23T03:52:37;16.20;99.90
12370;DHT22;6249;52.128;9.986;2022-07-23T03:55:58;16.10;99.90
12370;DHT22;6249;52.128;9.986;2022-07-23T03:59:19;16.00;99.90
12370;DHT22;6249;52.128;9.986;2022-07-23T04:02:40;15.80;99.90
12370;DHT22;6249;52.128;9.986;2022-07-23T04:06:06;15.80;99.90
12370;DHT22;6249;52.128;9.986;2022-07-23T04:09:29;15.70;99.90
12370;DHT22;6249;52.128;9.986;2022-07-23T04:12:49;15.80;99.90
12370;DHT22;6249;52.128;9.986;2022-07-23T04:16:12;15.90;99.90
12370;DHT22;6249;52.128;9.986;2022-07-23T04:19:33;15.90;99.90
12370;DHT22;6249;52.128;9.986;2022-07-23T04:22:55;16.00;99.90
12370;DHT22;6249;52.128;9.986;2022-07-23T04:26:16;16.00;99.90
12370;DHT22;6249;52.128;9.986;2022-07-23T04:29:37;15.90;99.90
12370;DHT22;6249;52.128;9.986;2022-07-23T04:33:00;15.90;99.90
12370;DHT22;6249;52.128;9.986;2022-07-23T04:36:20;15.80;99.90
12370;DHT22;6249;52.128;9.986;2022-07-23T04:39:41;15.90;99.90
12370;DHT22;6249;52.128;9.986;2022-07-23T04:43:01;15.90;99.90
12370;DHT22;6249;52.128;9.986;2022-07-23T04:46:25;15.90;99.90
12370;DHT22;6249;52.128;9.986;2022-07-23T04:49:48;16.00;99.90
12370;DHT22;6249;52.128;9.986;2022-07-23T04:53:08;16.00;99.90
12370;DHT22;6249;52.128;9.986;2022-07-23T04:56:31;16.00;99.90
12370;DHT22;6249;52.128;9.986;2022-07-23T04:59:52;16.00;99.90
12370;DHT22;6249;52.128;9.986;2022-07-23T05:03:12;16.00;99.90
12370;DHT22;6249;52.128;9.986;2022-07-23T05:06:38;16.10;99.90
12370;DHT22;6249;52.128;9.986;2022-07-23T05:09:59;16.10;99.90
12370;DHT22;6249;52.128;9.986;2022-07-23T05:13:19;16.00;99.90
12370;DHT22;6249;52.128;9.986;2022-07-23T05:16:40;16.10;99.90
12370;DHT22;6249;52.128;9.986;2022-07-23T05:20:00;16.10;99.90
12370;DHT22;6249;52.128;9.986;2022-07-23T05:23:21;16.10;99.90
12370;DHT22;6249;52.128;9.986;2022-07-23T05:26:42;16.10;99.90
12370;DHT22;6249;52.128;9.986;2022-07-23T05:30:05;16.10;99.90
12370;DHT22;6249;52.128;9.986;2022-07-23T05:33:26;16.10;99.90
12370;DHT22;6249;52.128;9.986;2022-07-23T05:36:46;16.30;99.90
12370;DHT22;6249;52.128;9.986;2022-07-23T05:40:10;16.40;99.90
12370;DHT22;6249;52.128;9.986;2022-07-23T05:43:30;16.50;99.90
12370;DHT22;6249;52.128;9.986;2022-07-23T05:46:55;16.50;99.90
12370;DHT22;6249;52.128;9.986;2022-07-23T05:50:18;16.60;99.90
12370;DHT22;6249;52.128;9.986;2022-07-23T05:53:39;16.60;99.90
12370;DHT22;6249;52.128;9.986;2022-07-23T05:57:02;16.60;99.90
12370;DHT22;6249;52.128;9.986;2022-07-23T06:00:26;16.60;99.90
12370;DHT22;6249;52.128;9.986;2022-07-23T06:03:47;16.60;99.90
12370;DHT22;6249;52.128;9.986;2022-07-23T06:07:08;16.60;99.90
12370;DHT22;6249;52.128;9.986;2022-07-23T06:10:28;16.70;99.90
12370;DHT22;6249;52.128;9.986;2022-07-23T06:13:49;16.80;99.90
12370;DHT22;6249;52.128;9.986;2022-07-23T06:17:14;16.80;99.90
12370;DHT22;6249;52.128;9.986;2022-07-23T06:20:38;16.80;99.90
12370;DHT22;6249;52.128;9.986;2022-07-23T06:24:00;16.90;99.90
12370;DHT22;6249;52.128;9.986;2022-07-23T06:27:21;16.90;99.90
12370;DHT22;6249;52.128;9.986;2022-07-23T06:30:44;17.00;99.90
12370;DHT22;6249;52.128;9.986;2022-07-23T06:34:05;17.10;99.90
12370;DHT22;6249;52.128;9.986;2022-07-23T06:37:25;17.30;99.90
12370;DHT22;6249;52.128;9.986;2022-07-23T06:40:46;17.40;99.90
12370;DHT22;6249;52.128;9.986;2022-07-23T06:44:07;17.40;99.90
12370;DHT22;6249;52.128;9.986;2022-07-23T06:47:27;17.40;99.90
12370;DHT22;6249;52.128;9.986;2022-07-23T06:50:48;17.60;99.90
12370;DHT22;6249;52.128;9.986;2022-07-23T06:54:11;17.70;99.90
12370;DHT22;6249;52.128;9.986;2022-07-23T06:57:34;17.70;99.90
12370;DHT22;6249;52.128;9.986;2022-07-23T07:00:55;17.70;99.90
12370;DHT22;6249;52.128;9.986;2022-07-23T07:04:19;17.80;99.90
12370;DHT22;6249;52.128;9.986;2022-07-23T07:07:40;17.80;99.90
12370;DHT22;6249;52.128;9.986;2022-07-23T07:11:03;18.00;99.90
12370;DHT22;6249;52.128;9.986;2022-07-23T07:14:26;18.00;99.90
12370;DHT22;6249;52.128;9.986;2022-07-23T07:17:49;18.20;99.90
12370;DHT22;6249;52.128;9.986;2022-07-23T07:21:14;18.30;99.90
12370;DHT22;6249;52.128;9.986;2022-07-23T07:24:35;18.30;99.90
12370;DHT22;6249;52.128;9.986;2022-07-23T07:27:55;18.30;99.90
12370;DHT22;6249;52.128;9.986;2022-07-23T07:31:16;18.40;99.90
12370;DHT22;6249;52.128;9.986;2022-07-23T07:34:39;18.60;99.90
12370;DHT22;6249;52.128;9.986;2022-07-23T07:38:00;18.70;99.90
12370;DHT22;6249;52.128;9.986;2022-07-23T07:41:21;18.90;99.90
12370;DHT22;6249;52.128;9.986;2022-07-23T07:44:49;19.00;99.90
12370;DHT22;6249;52.128;9.986;2022-07-23T07:48:09;19.00;99.90
12370;DHT22;6249;52.128;9.986;2022-07-23T07:51:30;19.10;99.90
12370;DHT22;6249;52.128;9.986;2022-07-23T07:54:53;19.30;99.90
12370;DHT22;6249;52.128;9.986;2022-07-23T07:58:13;19.20;99.90
12370;DHT22;6249;52.128;9.986;2022-07-23T08:01:34;19.40;99.90
12370;DHT22;6249;52.128;9.986;2022-07-23T08:04:55;19.50;99.90
12370;DHT22;6249;52.128;9.986;2022-07-23T08:08:17;19.50;99.90
12370;DHT22;6249;52.128;9.986;2022-07-23T08:11:40;19.80;99.90
12370;DHT22;6249;52.128;9.986;2022-07-23T08:15:01;20.00;99.90
12370;DHT22;6249;52.128;9.986;2022-07-23T08:18:22;20.20;99.90
12370;DHT22;6249;52.128;9.986;2022-07-23T08:21:44;20.50;99.90
12370;DHT22;6249;52.128;9.986;2022-07-23T08:25:05;20.80;99.90
12370;DHT22;6249;52.128;9.986;2022-07-23T08:28:26;21.00;99.90
12370;DHT22;6249;52.128;9.986;2022-07-23T08:31:47;21.20;99.90
12370;DHT22;6249;52.128;9.986;2022-07-23T08:35:09;21.40;99.90
12370;DHT22;6249;52.128;9.986;2022-07-23T08:38:31;21.20;99.90
12370;DHT22;6249;52.128;9.986;2022-07-23T08:41:52;21.40;99.90
12370;DHT22;6249;52.128;9.986;2022-07-23T08:45:19;21.80;99.90
12370;DHT22;6249;52.128;9.986;2022-07-23T08:48:41;21.80;99.90
12370;DHT22;6249;52.128;9.986;2022-07-23T08:52:02;21.60;99.90
12370;DHT22;6249;52.128;9.986;2022-07-23T08:55:23;21.50;99.90
12370;DHT22;6249;52.128;9.986;2022-07-23T08:58:43;21.60;99.90
12370;DHT22;6249;52.128;9.986;2022-07-23T09:02:06;21.60;99.90
12370;DHT22;6249;52.128;9.986;2022-07-23T09:05:27;21.80;99.90
12370;DHT22;6249;52.128;9.986;2022-07-23T09:08:47;21.90;99.90
12370;DHT22;6249;52.128;9.986;2022-07-23T09:12:09;22.00;99.90
12370;DHT22;6249;52.128;9.986;2022-07-23T09:15:32;22.10;99.90
12370;DHT22;6249;52.128;9.986;2022-07-23T09:19:11;22.10;99.90
12370;DHT22;6249;52.128;9.986;2022-07-23T09:22:36;22.30;99.90
12370;DHT22;6249;52.128;9.986;2022-07-23T09:25:57;22.50;99.90
12370;DHT22;6249;52.128;9.986;2022-07-23T09:29:22;22.70;99.90
12370;DHT22;6249;52.128;9.986;2022-07-23T09:32:43;23.00;99.90
12370;DHT22;6249;52.128;9.986;2022-07-23T09:36:06;22.90;99.90
12370;DHT22;6249;52.128;9.986;2022-07-23T09:39:32;23.10;99.90
12370;DHT22;6249;52.128;9.986;2022-07-23T09:42:56;23.50;99.90
12370;DHT22;6249;52.128;9.986;2022-07-23T09:46:35;24.10;99.90
12370;DHT22;6249;52.128;9.986;2022-07-23T09:50:08;24.60;98.80
12370;DHT22;6249;52.128;9.986;2022-07-23T09:53:30;24.80;96.60
12370;DHT22;6249;52.128;9.986;2022-07-23T09:56:54;24.50;96.60
12370;DHT22;6249;52.128;9.986;2022-07-23T10:00:19;24.50;96.50
12370;DHT22;6249;52.128;9.986;2022-07-23T10:03:41;24.30;98.00
12370;DHT22;6249;52.128;9.986;2022-07-23T10:07:05;24.40;97.10
12370;DHT22;6249;52.128;9.986;2022-07-23T10:10:30;24.10;97.20
12370;DHT22;6249;52.128;9.986;2022-07-23T10:13:53;24.60;96.20
12370;DHT22;6249;52.128;9.986;2022-07-23T10:17:22;24.80;96.20
12370;DHT22;6249;52.128;9.986;2022-07-23T10:20:43;25.10;96.50
12370;DHT22;6249;52.128;9.986;2022-07-23T10:24:15;25.90;94.70
12370;DHT22;6249;52.128;9.986;2022-07-23T10:42:33;26.00;91.80
12370;DHT22;6249;52.128;9.986;2022-07-23T10:45:55;25.90;92.70
12370;DHT22;6249;52.128;9.986;2022-07-23T10:49:33;26.20;92.20
12370;DHT22;6249;52.128;9.986;2022-07-23T11:00:19;27.40;88.10
12370;DHT22;6249;52.128;9.986;2022-07-23T11:03:40;27.30;89.30
12370;DHT22;6249;52.128;9.986;2022-07-23T11:07:18;28.10;90.10
12370;DHT22;6249;52.128;9.986;2022-07-23T11:10:42;28.30;83.10
12370;DHT22;6249;52.128;9.986;2022-07-23T11:14:05;27.20;85.40
12370;DHT22;6249;52.128;9.986;2022-07-23T11:17:27;26.50;90.10
12370;DHT22;6249;52.128;9.986;2022-07-23T11:20:48;26.40;90.40
12370;DHT22;6249;52.128;9.986;2022-07-23T11:27:43;26.70;89.70
12370;DHT22;6249;52.128;9.986;2022-07-23T11:31:17;27.60;86.30
12370;DHT22;6249;52.128;9.986;2022-07-23T11:41:43;26.90;90.50
12370;DHT22;6249;52.128;9.986;2022-07-23T11:45:08;27.80;87.80
12370;DHT22;6249;52.128;9.986;2022-07-23T11:48:30;28.00;82.80
12370;DHT22;6249;52.128;9.986;2022-07-23T11:52:04;28.20;80.90
12370;DHT22;6249;52.128;9.986;2022-07-23T11:55:30;28.80;80.50
12370;DHT22;6249;52.128;9.986;2022-07-23T11:58:54;28.90;78.60
12370;DHT22;6249;52.128;9.986;2022-07-23T12:02:16;29.60;76.00
12370;DHT22;6249;52.128;9.986;2022-07-23T12:05:38;29.90;76.70
12370;DHT22;6249;52.128;9.986;2022-07-23T12:09:01;30.50;75.70
12370;DHT22;6249;52.128;9.986;2022-07-23T12:12:25;31.20;71.10
12370;DHT22;6249;52.128;9.986;2022-07-23T12:15:51;31.90;67.70
12370;DHT22;6249;52.128;9.986;2022-07-23T12:19:15;32.40;69.50
12370;DHT22;6249;52.128;9.986;2022-07-23T12:22:39;33.60;66.30
12370;DHT22;6249;52.128;9.986;2022-07-23T12:26:03;33.70;61.10
12370;DHT22;6249;52.128;9.986;2022-07-23T12:29:34;33.70;60.30
12370;DHT22;6249;52.128;9.986;2022-07-23T12:32:59;33.70;58.90
12370;DHT22;6249;52.128;9.986;2022-07-23T12:36:22;33.70;57.90
12370;DHT22;6249;52.128;9.986;2022-07-23T12:39:59;33.70;58.20
12370;DHT22;6249;52.128;9.986;2022-07-23T12:43:39;33.20;57.00
12370;DHT22;6249;52.128;9.986;2022-07-23T12:47:04;32.10;58.80
12370;DHT22;6249;52.128;9.986;2022-07-23T12:50:47;32.00;61.80
12370;DHT22;6249;52.128;9.986;2022-07-23T12:54:09;32.00;61.20
12370;DHT22;6249;52.128;9.986;2022-07-23T12:57:46;32.20;59.90
12370;DHT22;6249;52.128;9.986;2022-07-23T13:01:07;32.60;58.30
12370;DHT22;6249;52.128;9.986;2022-07-23T13:04:30;32.90;58.00
12370;DHT22;6249;52.128;9.986;2022-07-23T13:07:55;32.10;58.90
12370;DHT22;6249;52.128;9.986;2022-07-23T13:11:16;32.30;58.90
12370;DHT22;6249;52.128;9.986;2022-07-23T13:14:36;31.40;58.20
12370;DHT22;6249;52.128;9.986;2022-07-23T13:18:00;31.10;60.70
12370;DHT22;6249;52.128;9.986;2022-07-23T13:21:20;31.60;61.20
12370;DHT22;6249;52.128;9.986;2022-07-23T13:24:41;31.90;59.90
12370;DHT22;6249;52.128;9.986;2022-07-23T13:28:01;32.10;59.30
12370;DHT22;6249;52.128;9.986;2022-07-23T13:31:22;32.70;56.80
12370;DHT22;6249;52.128;9.986;2022-07-23T13:34:43;32.90;57.20
12370;DHT22;6249;52.128;9.986;2022-07-23T13:38:05;33.40;56.60
12370;DHT22;6249;52.128;9.986;2022-07-23T13:41:27;34.30;54.70
12370;DHT22;6249;52.128;9.986;2022-07-23T13:44:50;35.00;53.90
12370;DHT22;6249;52.128;9.986;2022-07-23T13:48:12;35.40;51.60
12370;DHT22;6249;52.128;9.986;2022-07-23T13:51:33;36.60;50.90
12370;DHT22;6249;52.128;9.986;2022-07-23T13:54:56;36.40;48.90
12370;DHT22;6249;52.128;9.986;2022-07-23T13:58:17;35.50;48.70
12370;DHT22;6249;52.128;9.986;2022-07-23T14:01:43;34.50;50.20
12370;DHT22;6249;52.128;9.986;2022-07-23T14:05:08;34.20;50.80
12370;DHT22;6249;52.128;9.986;2022-07-23T14:08:29;34.40;50.10
12370;DHT22;6249;52.128;9.986;2022-07-23T14:11:49;33.60;51.30
12370;DHT22;6249;52.128;9.986;2022-07-23T14:15:11;32.60;51.90
12370;DHT22;6249;52.128;9.986;2022-07-23T14:18:32;32.90;53.80
12370;DHT22;6249;52.128;9.986;2022-07-23T14:21:52;33.90;51.50
12370;DHT22;6249;52.128;9.986;2022-07-23T14:25:13;33.60;50.80
12370;DHT22;6249;52.128;9.986;2022-07-23T14:28:34;33.50;52.50
12370;DHT22;6249;52.128;9.986;2022-07-23T14:31:55;35.00;50.70
12370;DHT22;6249;52.128;9.986;2022-07-23T14:35:15;35.70;49.60
12370;DHT22;6249;52.128;9.986;2022-07-23T14:38:36;36.60;48.40
12370;DHT22;6249;52.128;9.986;2022-07-23T14:41:57;36.30;46.70
12370;DHT22;6249;52.128;9.986;2022-07-23T14:45:18;36.10;48.10
12370;DHT22;6249;52.128;9.986;2022-07-23T14:48:38;37.20;47.00
12370;DHT22;6249;52.128;9.986;2022-07-23T14:52:00;37.80;45.20
12370;DHT22;6249;52.128;9.986;2022-07-23T14:55:23;38.10;44.50
12370;DHT22;6249;52.128;9.986;2022-07-23T14:58:46;37.60;45.10
12370;DHT22;6249;52.128;9.986;2022-07-23T15:02:07;38.00;43.90
12370;DHT22;6249;52.128;9.986;2022-07-23T15:05:30;37.90;42.70
12370;DHT22;6249;52.128;9.986;2022-07-23T15:08:53;37.60;43.60
12370;DHT22;6249;52.128;9.986;2022-07-23T15:12:18;38.20;42.60
12370;DHT22;6249;52.128;9.986;2022-07-23T15:15:39;38.50;41.60
12370;DHT22;6249;52.128;9.986;2022-07-23T15:19:00;38.50;41.60
12370;DHT22;6249;52.128;9.986;2022-07-23T15:22:21;38.10;41.40
12370;DHT22;6249;52.128;9.986;2022-07-23T15:25:42;38.50;41.70
12370;DHT22;6249;52.128;9.986;2022-07-23T15:29:03;38.60;40.60
12370;DHT22;6249;52.128;9.986;2022-07-23T15:32:28;38.20;40.90
12370;DHT22;6249;52.128;9.986;2022-07-23T15:35:49;37.90;40.80
12370;DHT22;6249;52.128;9.986;2022-07-23T15:39:13;37.80;40.60
12370;DHT22;6249;52.128;9.986;2022-07-23T15:42:36;37.80;40.90
12370;DHT22;6249;52.128;9.986;2022-07-23T15:45:56;37.20;40.30
12370;DHT22;6249;52.128;9.986;2022-07-23T15:49:19;35.90;41.70
12370;DHT22;6249;52.128;9.986;2022-07-23T15:52:42;35.80;42.20
12370;DHT22;6249;52.128;9.986;2022-07-23T15:56:05;35.40;43.40
12370;DHT22;6249;52.128;9.986;2022-07-23T15:59:26;35.70;44.80
12370;DHT22;6249;52.128;9.986;2022-07-23T16:02:46;36.20;43.10
12370;DHT22;6249;52.128;9.986;2022-07-23T16:06:07;36.20;42.70
12370;DHT22;6249;52.128;9.986;2022-07-23T16:09:28;35.00;42.80
12370;DHT22;6249;52.128;9.986;2022-07-23T16:12:49;33.20;45.90
12370;DHT22;6249;52.128;9.986;2022-07-23T16:16:10;32.50;46.70
12370;DHT22;6249;52.128;9.986;2022-07-23T16:19:33;31.80;47.40
12370;DHT22;6249;52.128;9.986;2022-07-23T16:22:54;30.70;49.00
12370;DHT22;6249;52.128;9.986;2022-07-23T16:26:14;30.20;50.00
12370;DHT22;6249;52.128;9.986;2022-07-23T16:29:35;29.60;52.10
12370;DHT22;6249;52.128;9.986;2022-07-23T16:32:58;29.40;53.10
12370;DHT22;6249;52.128;9.986;2022-07-23T16:36:19;29.30;53.20
12370;DHT22;6249;52.128;9.986;2022-07-23T16:39:40;29.20;53.40
12370;DHT22;6249;52.128;9.986;2022-07-23T16:43:03;29.00;54.60
12370;DHT22;6249;52.128;9.986;2022-07-23T16:46:24;29.00;54.80
12370;DHT22;6249;52.128;9.986;2022-07-23T16:49:44;29.10;54.90
12370;DHT22;6249;52.128;9.986;2022-07-23T16:53:05;29.00;54.50
12370;DHT22;6249;52.128;9.986;2022-07-23T16:56:28;28.80;55.90
12370;DHT22;6249;52.128;9.986;2022-07-23T16:59:49;28.70;55.60
12370;DHT22;6249;52.128;9.986;2022-07-23T17:03:10;28.50;56.60
12370;DHT22;6249;52.128;9.986;2022-07-23T17:06:34;28.40;57.40
12370;DHT22;6249;52.128;9.986;2022-07-23T17:09:55;28.30;58.50
12370;DHT22;6249;52.128;9.986;2022-07-23T17:13:15;28.10;58.30
12370;DHT22;6249;52.128;9.986;2022-07-23T17:16:36;28.10;58.60
12370;DHT22;6249;52.128;9.986;2022-07-23T17:19:57;28.00;59.20
12370;DHT22;6249;52.128;9.986;2022-07-23T17:23:20;28.00;59.30
12370;DHT22;6249;52.128;9.986;2022-07-23T17:26:44;28.00;59.30
12370;DHT22;6249;52.128;9.986;2022-07-23T17:30:05;27.70;58.80
12370;DHT22;6249;52.128;9.986;2022-07-23T17:33:26;27.40;59.90
12370;DHT22;6249;52.128;9.986;2022-07-23T17:36:46;27.20;60.50
12370;DHT22;6249;52.128;9.986;2022-07-23T17:40:09;27.10;61.50
12370;DHT22;6249;52.128;9.986;2022-07-23T17:43:30;27.10;61.20
12370;DHT22;6249;52.128;9.986;2022-07-23T17:46:55;27.00;61.60
12370;DHT22;6249;52.128;9.986;2022-07-23T17:50:16;26.70;62.60
12370;DHT22;6249;52.128;9.986;2022-07-23T17:53:39;26.60;64.10
12370;DHT22;6249;52.128;9.986;2022-07-23T17:57:00;26.40;64.70
12370;DHT22;6249;52.128;9.986;2022-07-23T18:00:27;26.30;65.00
12370;DHT22;6249;52.128;9.986;2022-07-23T18:03:51;26.10;65.10
12370;DHT22;6249;52.128;9.986;2022-07-23T18:07:11;25.80;66.70
12370;DHT22;6249;52.128;9.986;2022-07-23T18:10:33;25.50;67.70
12370;DHT22;6249;52.128;9.986;2022-07-23T18:13:54;25.40;69.10
12370;DHT22;6249;52.128;9.986;2022-07-23T18:17:17;25.40;68.90
12370;DHT22;6249;52.128;9.986;2022-07-23T18:20:38;25.40;68.70
12370;DHT22;6249;52.128;9.986;2022-07-23T18:24:01;25.20;69.40
12370;DHT22;6249;52.128;9.986;2022-07-23T18:27:22;25.10;69.70
12370;DHT22;6249;52.128;9.986;2022-07-23T18:30:43;25.10;70.70
12370;DHT22;6249;52.128;9.986;2022-07-23T18:34:04;24.90;71.90
12370;DHT22;6249;52.128;9.986;2022-07-23T18:37:27;24.80;72.30
12370;DHT22;6249;52.128;9.986;2022-07-23T18:40:48;24.60;73.40
12370;DHT22;6249;52.128;9.986;2022-07-23T18:44:08;24.30;73.40
12370;DHT22;6249;52.128;9.986;2022-07-23T18:47:33;24.30;74.40
12370;DHT22;6249;52.128;9.986;2022-07-23T18:50:54;24.20;75.40
12370;DHT22;6249;52.128;9.986;2022-07-23T18:54:15;24.00;75.90
12370;DHT22;6249;52.128;9.986;2022-07-23T18:57:35;24.00;76.20
12370;DHT22;6249;52.128;9.986;2022-07-23T19:00:56;23.90;77.30
12370;DHT22;6249;52.128;9.986;2022-07-23T19:04:17;23.90;76.80
12370;DHT22;6249;52.128;9.986;2022-07-23T19:07:38;23.70;78.50
12370;DHT22;6249;52.128;9.986;2022-07-23T19:10:58;23.70;79.40
12370;DHT22;6249;52.128;9.986;2022-07-23T19:14:19;23.60;79.50
12370;DHT22;6249;52.128;9.986;2022-07-23T19:17:45;23.40;80.60
12370;DHT22;6249;52.128;9.986;2022-07-23T19:21:06;23.20;80.80
12370;DHT22;6249;52.128;9.986;2022-07-23T19:24:27;23.10;82.20
12370;DHT22;6249;52.128;9.986;2022-07-23T19:27:47;23.00;83.60
12370;DHT22;6249;52.128;9.986;2022-07-23T19:31:08;23.00;83.80
12370;DHT22;6249;52.128;9.986;2022-07-23T19:34:29;22.80;84.80
12370;DHT22;6249;52.128;9.986;2022-07-23T19:37:49;22.80;85.60
12370;DHT22;6249;52.128;9.986;2022-07-23T19:41:13;22.70;86.70
12370;DHT22;6249;52.128;9.986;2022-07-23T19:44:36;22.60;88.10
12370;DHT22;6249;52.128;9.986;2022-07-23T19:47:59;22.40;89.70
12370;DHT22;6249;52.128;9.986;2022-07-23T19:51:22;22.40;90.60
12370;DHT22;6249;52.128;9.986;2022-07-23T19:54:43;22.20;91.20
12370;DHT22;6249;52.128;9.986;2022-07-23T19:58:03;22.10;91.50
12370;DHT22;6249;52.128;9.986;2022-07-23T20:01:24;22.10;92.10
12370;DHT22;6249;52.128;9.986;2022-07-23T20:04:45;21.90;92.60
12370;DHT22;6249;52.128;9.986;2022-07-23T20:08:08;21.80;93.20
12370;DHT22;6249;52.128;9.986;2022-07-23T20:11:31;21.70;93.90
12370;DHT22;6249;52.128;9.986;2022-07-23T20:14:53;21.60;94.20
12370;DHT22;6249;52.128;9.986;2022-07-23T20:18:16;21.50;94.90
12370;DHT22;6249;52.128;9.986;2022-07-23T20:21:36;21.50;95.60
12370;DHT22;6249;52.128;9.986;2022-07-23T20:25:05;21.40;96.10
12370;DHT22;6249;52.128;9.986;2022-07-23T20:28:26;21.30;96.50
12370;DHT22;6249;52.128;9.986;2022-07-23T20:31:48;21.20;96.90
12370;DHT22;6249;52.128;9.986;2022-07-23T20:35:09;20.90;97.90
12370;DHT22;6249;52.128;9.986;2022-07-23T20:38:31;20.70;98.60
12370;DHT22;6249;52.128;9.986;2022-07-23T20:41:51;20.50;99.30
12370;DHT22;6249;52.128;9.986;2022-07-23T20:45:12;20.30;99.90
12370;DHT22;6249;52.128;9.986;2022-07-23T20:48:33;20.20;99.90
12370;DHT22;6249;52.128;9.986;2022-07-23T20:51:56;20.10;99.90
12370;DHT22;6249;52.128;9.986;2022-07-23T20:55:17;19.90;99.90
12370;DHT22;6249;52.128;9.986;2022-07-23T20:58:37;19.90;99.90
12370;DHT22;6249;52.128;9.986;2022-07-23T21:02:00;19.80;99.90
12370;DHT22;6249;52.128;9.986;2022-07-23T21:05:23;19.70;99.90
12370;DHT22;6249;52.128;9.986;2022-07-23T21:08:47;19.70;99.90
12370;DHT22;6249;52.128;9.986;2022-07-23T21:12:12;19.60;99.90
12370;DHT22;6249;52.128;9.986;2022-07-23T21:15:35;19.60;99.90
12370;DHT22;6249;52.128;9.986;2022-07-23T21:18:56;19.60;99.90
12370;DHT22;6249;52.128;9.986;2022-07-23T21:22:16;19.50;99.90
12370;DHT22;6249;52.128;9.986;2022-07-23T21:25:40;19.40;99.90
12370;DHT22;6249;52.128;9.986;2022-07-23T21:29:03;19.30;99.90
12370;DHT22;6249;52.128;9.986;2022-07-23T21:32:24;19.20;99.90
12370;DHT22;6249;52.128;9.986;2022-07-23T21:35:45;19.10;99.90
12370;DHT22;6249;52.128;9.986;2022-07-23T21:39:08;19.10;99.90
12370;DHT22;6249;52.128;9.986;2022-07-23T21:42:31;19.10;99.90
12370;DHT22;6249;52.128;9.986;2022-07-23T21:45:54;18.90;99.90
12370;DHT22;6249;52.128;9.986;2022-07-23T21:49:17;18.80;99.90
12370;DHT22;6249;52.128;9.986;2022-07-23T21:52:41;18.80;99.90
12370;DHT22;6249;52.128;9.986;2022-07-23T21:56:01;18.80;99.90
12370;DHT22;6249;52.128;9.986;2022-07-23T21:59:24;18.70;99.90
12370;DHT22;6249;52.128;9.986;2022-07-23T22:02:45;18.60;99.90
12370;DHT22;6249;52.128;9.986;2022-07-23T22:06:06;18.50;99.90
12370;DHT22;6249;52.128;9.986;2022-07-23T22:09:26;18.40;99.90